sensor_id;sensor_type;location;lat;lon;timestamp;P1;durP1;ratioP1;P2;durP2;ratioP2
72728;SDS011;60843;52.062;4.508;2023-02-11T00:00:48;10.52;;;1.85;;
72728;SDS011;60843;52.062;4.508;2023-02-11T00:03:14;12.88;;;2.20;;
72728;SDS011;60843;52.062;4.508;2023-02-11T00:05:39;13.77;;;2.42;;
72728;SDS011;60843;52.062;4.508;2023-02-11T00:08:05;18.05;;;2.20;;
72728;SDS011;60843;52.062;4.508;2023-02-11T00:10:31;20.67;;;2.28;;
72728;SDS011;60843;52.062;4.508;2023-02-11T00:12:56;11.67;;;2.20;;
72728;SDS011;60843;52.062;4.508;2023-02-11T00:15:21;12.53;;;2.23;;
72728;SDS011;60843;52.062;4.508;2023-02-11T00:17:47;10.05;;;1.75;;
72728;SDS011;60843;52.062;4.508;2023-02-11T00:20:12;12.20;;;2.53;;
72728;SDS011;60843;52.062;4.508;2023-02-11T00:22:38;14.80;;;2.92;;
72728;SDS011;60843;52.062;4.508;2023-02-11T00:25:03;17.97;;;2.40;;
72728;SDS011;60843;52.062;4.508;2023-02-11T00:27:29;14.20;;;2.55;;
72728;SDS011;60843;52.062;4.508;2023-02-11T00:29:55;14.38;;;3.10;;
72728;SDS011;60843;52.062;4.508;2023-02-11T00:32:20;14.95;;;2.67;;
72728;SDS011;60843;52.062;4.508;2023-02-11T00:34:45;20.43;;;2.67;;
72728;SDS011;60843;52.062;4.508;2023-02-11T00:37:11;18.00;;;2.55;;
72728;SDS011;60843;52.062;4.508;2023-02-11T00:39:37;11.20;;;3.03;;
72728;SDS011;60843;52.062;4.508;2023-02-11T00:42:03;14.43;;;2.28;;
72728;SDS011;60843;52.062;4.508;2023-02-11T00:44:28;22.55;;;2.72;;
72728;SDS011;60843;52.062;4.508;2023-02-11T00:46:54;16.98;;;2.65;;
72728;SDS011;60843;52.062;4.508;2023-02-11T00:49:19;7.47;;;1.55;;
72728;SDS011;60843;52.062;4.508;2023-02-11T00:51:44;7.25;;;1.95;;
72728;SDS011;60843;52.062;4.508;2023-02-11T00:54:10;16.00;;;2.33;;
72728;SDS011;60843;52.062;4.508;2023-02-11T00:56:36;12.95;;;2.30;;
72728;SDS011;60843;52.062;4.508;2023-02-11T00:59:01;14.45;;;3.13;;
72728;SDS011;60843;52.062;4.508;2023-02-11T01:01:27;11.57;;;1.98;;
72728;SDS011;60843;52.062;4.508;2023-02-11T01:03:52;15.63;;;3.30;;
72728;SDS011;60843;52.062;4.508;2023-02-11T01:06:18;15.20;;;2.95;;
72728;SDS011;60843;52.062;4.508;2023-02-11T01:08:43;14.43;;;2.95;;
72728;SDS011;60843;52.062;4.508;2023-02-11T01:11:13;9.77;;;2.35;;
72728;SDS011;60843;52.062;4.508;2023-02-11T01:13:40;13.50;;;2.70;;
72728;SDS011;60843;52.062;4.508;2023-02-11T01:16:07;16.67;;;2.70;;
72728;SDS011;60843;52.062;4.508;2023-02-11T01:18:33;20.05;;;4.13;;
72728;SDS011;60843;52.062;4.508;2023-02-11T01:20:59;12.57;;;3.00;;
72728;SDS011;60843;52.062;4.508;2023-02-11T01:23:25;11.63;;;2.90;;
72728;SDS011;60843;52.062;4.508;2023-02-11T01:25:50;12.50;;;3.17;;
72728;SDS011;60843;52.062;4.508;2023-02-11T01:28:17;16.75;;;2.83;;
72728;SDS011;60843;52.062;4.508;2023-02-11T01:30:47;13.35;;;2.78;;
72728;SDS011;60843;52.062;4.508;2023-02-11T01:33:12;15.82;;;2.97;;
72728;SDS011;60843;52.062;4.508;2023-02-11T01:35:38;8.57;;;3.17;;
72728;SDS011;60843;52.062;4.508;2023-02-11T01:38:05;12.25;;;2.80;;
72728;SDS011;60843;52.062;4.508;2023-02-11T01:40:31;14.65;;;3.17;;
72728;SDS011;60843;52.062;4.508;2023-02-11T01:42:57;16.42;;;3.75;;
72728;SDS011;60843;52.062;4.508;2023-02-11T01:48:06;11.23;;;2.92;;
72728;SDS011;60843;52.062;4.508;2023-02-11T01:50:33;16.08;;;3.05;;
72728;SDS011;60843;52.062;4.508;2023-02-11T01:52:58;14.65;;;4.13;;
72728;SDS011;60843;52.062;4.508;2023-02-11T01:55:44;14.80;;;3.47;;
72728;SDS011;60843;52.062;4.508;2023-02-11T01:58:28;13.32;;;3.40;;
72728;SDS011;60843;52.062;4.508;2023-02-11T02:00:55;17.40;;;3.58;;
72728;SDS011;60843;52.062;4.508;2023-02-11T02:03:21;18.08;;;4.10;;
72728;SDS011;60843;52.062;4.508;2023-02-11T02:05:52;10.88;;;3.08;;
72728;SDS011;60843;52.062;4.508;2023-02-11T02:08:33;14.25;;;3.65;;
72728;SDS011;60843;52.062;4.508;2023-02-11T02:11:05;12.73;;;3.25;;
72728;SDS011;60843;52.062;4.508;2023-02-11T02:13:31;21.02;;;4.00;;
72728;SDS011;60843;52.062;4.508;2023-02-11T02:16:04;14.18;;;4.28;;
72728;SDS011;60843;52.062;4.508;2023-02-11T02:18:36;15.00;;;4.25;;
72728;SDS011;60843;52.062;4.508;2023-02-11T02:40:53;14.50;;;3.95;;
72728;SDS011;60843;52.062;4.508;2023-02-11T02:43:21;16.33;;;4.38;;
72728;SDS011;60843;52.062;4.508;2023-02-11T02:45:48;14.35;;;4.68;;
72728;SDS011;60843;52.062;4.508;2023-02-11T02:48:27;22.08;;;4.88;;
72728;SDS011;60843;52.062;4.508;2023-02-11T02:50:57;19.13;;;4.88;;
72728;SDS011;60843;52.062;4.508;2023-02-11T02:53:31;20.05;;;4.95;;
72728;SDS011;60843;52.062;4.508;2023-02-11T02:56:03;17.60;;;5.30;;
72728;SDS011;60843;52.062;4.508;2023-02-11T02:58:47;18.77;;;5.57;;
72728;SDS011;60843;52.062;4.508;2023-02-11T03:01:20;16.15;;;5.00;;
72728;SDS011;60843;52.062;4.508;2023-02-11T03:09:36;18.23;;;5.32;;
72728;SDS011;60843;52.062;4.508;2023-02-11T03:12:05;19.52;;;5.50;;
72728;SDS011;60843;52.062;4.508;2023-02-11T03:14:31;16.60;;;5.03;;
72728;SDS011;60843;52.062;4.508;2023-02-11T03:16:58;24.17;;;5.20;;
72728;SDS011;60843;52.062;4.508;2023-02-11T03:19:28;17.33;;;4.13;;
72728;SDS011;60843;52.062;4.508;2023-02-11T03:21:55;13.60;;;4.43;;
72728;SDS011;60843;52.062;4.508;2023-02-11T03:24:29;19.92;;;4.72;;
72728;SDS011;60843;52.062;4.508;2023-02-11T03:26:57;21.27;;;4.93;;
72728;SDS011;60843;52.062;4.508;2023-02-11T03:37:48;17.92;;;4.45;;
72728;SDS011;60843;52.062;4.508;2023-02-11T03:40:24;19.50;;;4.65;;
72728;SDS011;60843;52.062;4.508;2023-02-11T03:45:18;20.27;;;5.05;;
72728;SDS011;60843;52.062;4.508;2023-02-11T03:47:47;17.92;;;4.47;;
72728;SDS011;60843;52.062;4.508;2023-02-11T03:50:22;15.70;;;4.20;;
72728;SDS011;60843;52.062;4.508;2023-02-11T03:52:48;20.80;;;4.63;;
72728;SDS011;60843;52.062;4.508;2023-02-11T03:55:15;29.63;;;5.18;;
72728;SDS011;60843;52.062;4.508;2023-02-11T03:57:42;17.42;;;4.18;;
72728;SDS011;60843;52.062;4.508;2023-02-11T04:00:07;17.63;;;5.07;;
72728;SDS011;60843;52.062;4.508;2023-02-11T04:02:36;24.55;;;4.13;;
72728;SDS011;60843;52.062;4.508;2023-02-11T04:05:02;17.60;;;5.30;;
72728;SDS011;60843;52.062;4.508;2023-02-11T04:07:29;16.30;;;4.75;;
72728;SDS011;60843;52.062;4.508;2023-02-11T04:09:54;29.92;;;6.15;;
72728;SDS011;60843;52.062;4.508;2023-02-11T04:12:19;26.67;;;6.30;;
72728;SDS011;60843;52.062;4.508;2023-02-11T04:14:45;19.80;;;5.53;;
72728;SDS011;60843;52.062;4.508;2023-02-11T04:17:10;25.50;;;5.97;;
72728;SDS011;60843;52.062;4.508;2023-02-11T04:19:36;21.17;;;5.40;;
72728;SDS011;60843;52.062;4.508;2023-02-11T04:22:02;20.48;;;4.88;;
72728;SDS011;60843;52.062;4.508;2023-02-11T04:24:27;21.48;;;6.20;;
72728;SDS011;60843;52.062;4.508;2023-02-11T04:26:53;24.88;;;5.93;;
72728;SDS011;60843;52.062;4.508;2023-02-11T04:29:19;22.35;;;6.68;;
72728;SDS011;60843;52.062;4.508;2023-02-11T04:31:44;22.10;;;7.00;;
72728;SDS011;60843;52.062;4.508;2023-02-11T04:34:10;21.98;;;5.75;;
72728;SDS011;60843;52.062;4.508;2023-02-11T04:36:35;28.23;;;7.72;;
72728;SDS011;60843;52.062;4.508;2023-02-11T04:39:01;25.63;;;6.70;;
72728;SDS011;60843;52.062;4.508;2023-02-11T04:41:27;20.23;;;6.38;;
72728;SDS011;60843;52.062;4.508;2023-02-11T04:43:52;28.17;;;7.17;;
72728;SDS011;60843;52.062;4.508;2023-02-11T04:46:17;21.87;;;7.27;;
72728;SDS011;60843;52.062;4.508;2023-02-11T04:48:43;27.80;;;7.50;;
72728;SDS011;60843;52.062;4.508;2023-02-11T04:51:08;26.87;;;7.80;;
72728;SDS011;60843;52.062;4.508;2023-02-11T04:53:34;24.98;;;7.28;;
72728;SDS011;60843;52.062;4.508;2023-02-11T04:55:59;20.88;;;6.95;;
72728;SDS011;60843;52.062;4.508;2023-02-11T04:58:24;27.23;;;7.17;;
72728;SDS011;60843;52.062;4.508;2023-02-11T05:00:50;26.63;;;8.35;;
72728;SDS011;60843;52.062;4.508;2023-02-11T05:03:15;25.15;;;7.10;;
72728;SDS011;60843;52.062;4.508;2023-02-11T05:05:41;25.77;;;7.75;;
72728;SDS011;60843;52.062;4.508;2023-02-11T05:08:08;29.45;;;7.53;;
72728;SDS011;60843;52.062;4.508;2023-02-11T05:10:34;24.45;;;7.70;;
72728;SDS011;60843;52.062;4.508;2023-02-11T05:12:59;23.27;;;7.85;;
72728;SDS011;60843;52.062;4.508;2023-02-11T05:15:25;22.00;;;8.27;;
72728;SDS011;60843;52.062;4.508;2023-02-11T05:17:51;23.58;;;8.27;;
72728;SDS011;60843;52.062;4.508;2023-02-11T05:20:17;21.15;;;6.57;;
72728;SDS011;60843;52.062;4.508;2023-02-11T05:22:42;23.90;;;7.05;;
72728;SDS011;60843;52.062;4.508;2023-02-11T05:25:08;27.77;;;6.93;;
72728;SDS011;60843;52.062;4.508;2023-02-11T05:27:33;27.48;;;9.13;;
72728;SDS011;60843;52.062;4.508;2023-02-11T05:29:59;35.35;;;7.97;;
72728;SDS011;60843;52.062;4.508;2023-02-11T05:32:24;42.17;;;7.90;;
72728;SDS011;60843;52.062;4.508;2023-02-11T05:34:50;34.25;;;8.00;;
72728;SDS011;60843;52.062;4.508;2023-02-11T05:37:15;27.80;;;7.97;;
72728;SDS011;60843;52.062;4.508;2023-02-11T05:39:41;28.10;;;7.82;;
72728;SDS011;60843;52.062;4.508;2023-02-11T05:42:06;29.65;;;8.60;;
72728;SDS011;60843;52.062;4.508;2023-02-11T05:44:32;36.92;;;8.55;;
72728;SDS011;60843;52.062;4.508;2023-02-11T05:46:57;22.85;;;8.05;;
72728;SDS011;60843;52.062;4.508;2023-02-11T05:49:23;37.58;;;11.77;;
72728;SDS011;60843;52.062;4.508;2023-02-11T05:51:48;41.28;;;10.35;;
72728;SDS011;60843;52.062;4.508;2023-02-11T05:54:14;47.83;;;14.38;;
72728;SDS011;60843;52.062;4.508;2023-02-11T05:56:39;49.30;;;13.68;;
72728;SDS011;60843;52.062;4.508;2023-02-11T05:59:05;44.08;;;13.90;;
72728;SDS011;60843;52.062;4.508;2023-02-11T06:01:30;52.28;;;14.27;;
72728;SDS011;60843;52.062;4.508;2023-02-11T06:03:55;45.30;;;14.43;;
72728;SDS011;60843;52.062;4.508;2023-02-11T06:06:21;29.73;;;10.45;;
72728;SDS011;60843;52.062;4.508;2023-02-11T06:08:46;30.02;;;10.35;;
72728;SDS011;60843;52.062;4.508;2023-02-11T06:11:15;37.70;;;13.05;;
72728;SDS011;60843;52.062;4.508;2023-02-11T06:13:41;33.60;;;10.40;;
72728;SDS011;60843;52.062;4.508;2023-02-11T06:16:07;33.80;;;11.15;;
72728;SDS011;60843;52.062;4.508;2023-02-11T06:18:33;31.27;;;11.07;;
72728;SDS011;60843;52.062;4.508;2023-02-11T06:20:58;28.17;;;10.68;;
72728;SDS011;60843;52.062;4.508;2023-02-11T06:23:24;32.05;;;11.35;;
72728;SDS011;60843;52.062;4.508;2023-02-11T06:25:50;33.83;;;11.85;;
72728;SDS011;60843;52.062;4.508;2023-02-11T06:28:16;28.45;;;11.00;;
72728;SDS011;60843;52.062;4.508;2023-02-11T06:30:41;35.00;;;11.67;;
72728;SDS011;60843;52.062;4.508;2023-02-11T06:33:07;36.15;;;11.43;;
72728;SDS011;60843;52.062;4.508;2023-02-11T06:35:32;31.67;;;9.97;;
72728;SDS011;60843;52.062;4.508;2023-02-11T06:37:59;33.17;;;11.50;;
72728;SDS011;60843;52.062;4.508;2023-02-11T06:40:25;33.97;;;12.02;;
72728;SDS011;60843;52.062;4.508;2023-02-11T06:42:50;29.83;;;11.57;;
72728;SDS011;60843;52.062;4.508;2023-02-11T06:45:16;35.25;;;11.77;;
72728;SDS011;60843;52.062;4.508;2023-02-11T06:47:41;29.83;;;10.93;;
72728;SDS011;60843;52.062;4.508;2023-02-11T06:50:07;31.13;;;11.15;;
72728;SDS011;60843;52.062;4.508;2023-02-11T06:52:36;33.05;;;12.23;;
72728;SDS011;60843;52.062;4.508;2023-02-11T06:55:01;41.70;;;13.45;;
72728;SDS011;60843;52.062;4.508;2023-02-11T06:57:28;31.48;;;12.80;;
72728;SDS011;60843;52.062;4.508;2023-02-11T06:59:54;42.30;;;13.82;;
72728;SDS011;60843;52.062;4.508;2023-02-11T07:02:19;34.13;;;12.75;;
72728;SDS011;60843;52.062;4.508;2023-02-11T07:04:45;31.27;;;12.20;;
72728;SDS011;60843;52.062;4.508;2023-02-11T07:07:10;35.10;;;12.03;;
72728;SDS011;60843;52.062;4.508;2023-02-11T07:09:36;33.80;;;11.93;;
72728;SDS011;60843;52.062;4.508;2023-02-11T07:12:01;32.10;;;11.68;;
72728;SDS011;60843;52.062;4.508;2023-02-11T07:14:26;35.67;;;11.68;;
72728;SDS011;60843;52.062;4.508;2023-02-11T07:16:52;37.53;;;12.02;;
72728;SDS011;60843;52.062;4.508;2023-02-11T07:19:18;41.13;;;12.95;;
72728;SDS011;60843;52.062;4.508;2023-02-11T07:21:43;33.83;;;12.48;;
72728;SDS011;60843;52.062;4.508;2023-02-11T07:26:38;33.15;;;12.20;;
72728;SDS011;60843;52.062;4.508;2023-02-11T07:29:04;33.30;;;11.73;;
72728;SDS011;60843;52.062;4.508;2023-02-11T07:31:29;40.22;;;11.85;;
72728;SDS011;60843;52.062;4.508;2023-02-11T07:33:56;33.20;;;12.40;;
72728;SDS011;60843;52.062;4.508;2023-02-11T07:36:23;36.67;;;11.88;;
72728;SDS011;60843;52.062;4.508;2023-02-11T07:38:49;32.38;;;12.18;;
72728;SDS011;60843;52.062;4.508;2023-02-11T07:41:16;40.05;;;13.05;;
72728;SDS011;60843;52.062;4.508;2023-02-11T07:46:16;30.53;;;11.90;;
72728;SDS011;60843;52.062;4.508;2023-02-11T07:48:43;26.98;;;11.18;;
72728;SDS011;60843;52.062;4.508;2023-02-11T07:51:10;24.42;;;9.75;;
72728;SDS011;60843;52.062;4.508;2023-02-11T07:53:37;25.05;;;10.13;;
72728;SDS011;60843;52.062;4.508;2023-02-11T07:56:03;29.10;;;11.50;;
72728;SDS011;60843;52.062;4.508;2023-02-11T07:58:29;27.52;;;10.05;;
72728;SDS011;60843;52.062;4.508;2023-02-11T08:00:59;33.50;;;11.07;;
72728;SDS011;60843;52.062;4.508;2023-02-11T08:03:28;25.88;;;9.95;;
72728;SDS011;60843;52.062;4.508;2023-02-11T08:05:53;29.02;;;10.75;;
72728;SDS011;60843;52.062;4.508;2023-02-11T08:08:19;31.52;;;11.13;;
72728;SDS011;60843;52.062;4.508;2023-02-11T08:10:44;33.33;;;10.47;;
72728;SDS011;60843;52.062;4.508;2023-02-11T08:13:10;29.83;;;11.50;;
72728;SDS011;60843;52.062;4.508;2023-02-11T08:15:35;33.30;;;10.85;;
72728;SDS011;60843;52.062;4.508;2023-02-11T08:18:01;25.83;;;11.48;;
72728;SDS011;60843;52.062;4.508;2023-02-11T08:20:27;31.05;;;11.77;;
72728;SDS011;60843;52.062;4.508;2023-02-11T08:22:53;29.13;;;11.32;;
72728;SDS011;60843;52.062;4.508;2023-02-11T08:25:18;28.33;;;11.80;;
72728;SDS011;60843;52.062;4.508;2023-02-11T08:27:43;27.37;;;10.10;;
72728;SDS011;60843;52.062;4.508;2023-02-11T08:30:09;34.15;;;11.60;;
72728;SDS011;60843;52.062;4.508;2023-02-11T08:32:35;27.63;;;10.07;;
72728;SDS011;60843;52.062;4.508;2023-02-11T08:35:00;26.05;;;10.60;;
72728;SDS011;60843;52.062;4.508;2023-02-11T08:37:26;26.55;;;10.65;;
72728;SDS011;60843;52.062;4.508;2023-02-11T08:39:51;26.00;;;9.00;;
72728;SDS011;60843;52.062;4.508;2023-02-11T08:42:17;28.05;;;9.90;;
72728;SDS011;60843;52.062;4.508;2023-02-11T08:44:42;25.48;;;10.05;;
72728;SDS011;60843;52.062;4.508;2023-02-11T08:47:08;23.02;;;9.20;;
72728;SDS011;60843;52.062;4.508;2023-02-11T08:49:33;21.23;;;9.18;;
72728;SDS011;60843;52.062;4.508;2023-02-11T08:51:59;21.80;;;9.48;;
72728;SDS011;60843;52.062;4.508;2023-02-11T08:54:28;14.63;;;6.07;;
72728;SDS011;60843;52.062;4.508;2023-02-11T08:56:54;22.50;;;8.63;;
72728;SDS011;60843;52.062;4.508;2023-02-11T08:59:20;20.98;;;8.43;;
72728;SDS011;60843;52.062;4.508;2023-02-11T09:01:48;22.98;;;9.18;;
72728;SDS011;60843;52.062;4.508;2023-02-11T09:04:13;20.27;;;9.43;;
72728;SDS011;60843;52.062;4.508;2023-02-11T09:06:39;20.35;;;8.98;;
72728;SDS011;60843;52.062;4.508;2023-02-11T09:09:04;23.30;;;8.52;;
72728;SDS011;60843;52.062;4.508;2023-02-11T09:11:31;21.63;;;8.13;;
72728;SDS011;60843;52.062;4.508;2023-02-11T09:16:26;23.27;;;7.75;;
72728;SDS011;60843;52.062;4.508;2023-02-11T09:18:54;21.30;;;6.88;;
72728;SDS011;60843;52.062;4.508;2023-02-11T09:21:20;16.15;;;6.85;;
72728;SDS011;60843;52.062;4.508;2023-02-11T09:23:46;18.73;;;7.78;;
72728;SDS011;60843;52.062;4.508;2023-02-11T09:26:19;15.25;;;6.57;;
72728;SDS011;60843;52.062;4.508;2023-02-11T09:31:13;12.95;;;6.35;;
72728;SDS011;60843;52.062;4.508;2023-02-11T09:33:40;13.93;;;6.28;;
72728;SDS011;60843;52.062;4.508;2023-02-11T09:36:12;14.95;;;7.22;;
72728;SDS011;60843;52.062;4.508;2023-02-11T09:38:39;14.60;;;6.68;;
72728;SDS011;60843;52.062;4.508;2023-02-11T09:41:04;16.52;;;6.80;;
72728;SDS011;60843;52.062;4.508;2023-02-11T09:43:36;16.20;;;6.68;;
72728;SDS011;60843;52.062;4.508;2023-02-11T09:46:08;14.52;;;6.30;;
72728;SDS011;60843;52.062;4.508;2023-02-11T09:48:38;11.05;;;5.82;;
72728;SDS011;60843;52.062;4.508;2023-02-11T09:51:05;13.85;;;5.97;;
72728;SDS011;60843;52.062;4.508;2023-02-11T09:54:00;10.13;;;4.55;;
72728;SDS011;60843;52.062;4.508;2023-02-11T09:56:29;12.63;;;5.53;;
72728;SDS011;60843;52.062;4.508;2023-02-11T09:58:55;12.52;;;5.85;;
72728;SDS011;60843;52.062;4.508;2023-02-11T10:06:41;11.10;;;4.93;;
72728;SDS011;60843;52.062;4.508;2023-02-11T10:10:03;10.00;;;4.70;;
72728;SDS011;60843;52.062;4.508;2023-02-11T10:18:00;7.75;;;4.03;;
72728;SDS011;60843;52.062;4.508;2023-02-11T10:20:37;9.20;;;4.65;;
72728;SDS011;60843;52.062;4.508;2023-02-11T10:23:24;9.00;;;5.00;;
72728;SDS011;60843;52.062;4.508;2023-02-11T10:25:52;10.27;;;5.38;;
72728;SDS011;60843;52.062;4.508;2023-02-11T10:28:36;10.45;;;5.30;;
72728;SDS011;60843;52.062;4.508;2023-02-11T10:31:10;11.27;;;5.00;;
72728;SDS011;60843;52.062;4.508;2023-02-11T10:36:29;13.57;;;5.40;;
72728;SDS011;60843;52.062;4.508;2023-02-11T10:38:57;12.25;;;5.25;;
72728;SDS011;60843;52.062;4.508;2023-02-11T10:41:29;8.48;;;4.15;;
72728;SDS011;60843;52.062;4.508;2023-02-11T10:44:01;9.73;;;4.68;;
72728;SDS011;60843;52.062;4.508;2023-02-11T10:46:31;9.55;;;4.68;;
72728;SDS011;60843;52.062;4.508;2023-02-11T10:48:58;7.97;;;4.25;;
72728;SDS011;60843;52.062;4.508;2023-02-11T10:53:49;10.60;;;5.10;;
72728;SDS011;60843;52.062;4.508;2023-02-11T10:56:38;7.47;;;2.70;;
72728;SDS011;60843;52.062;4.508;2023-02-11T10:59:06;10.13;;;5.03;;
72728;SDS011;60843;52.062;4.508;2023-02-11T11:01:51;11.30;;;5.70;;
72728;SDS011;60843;52.062;4.508;2023-02-11T11:06:58;7.00;;;4.25;;
72728;SDS011;60843;52.062;4.508;2023-02-11T11:09:49;11.35;;;4.95;;
72728;SDS011;60843;52.062;4.508;2023-02-11T11:12:23;9.18;;;4.70;;
72728;SDS011;60843;52.062;4.508;2023-02-11T11:14:56;11.80;;;5.88;;
72728;SDS011;60843;52.062;4.508;2023-02-11T11:17:23;12.38;;;5.65;;
72728;SDS011;60843;52.062;4.508;2023-02-11T11:19:49;9.13;;;4.88;;
72728;SDS011;60843;52.062;4.508;2023-02-11T11:22:19;12.60;;;5.13;;
72728;SDS011;60843;52.062;4.508;2023-02-11T11:24:46;12.48;;;4.85;;
72728;SDS011;60843;52.062;4.508;2023-02-11T11:27:18;11.02;;;5.72;;
72728;SDS011;60843;52.062;4.508;2023-02-11T11:29:52;11.75;;;5.35;;
72728;SDS011;60843;52.062;4.508;2023-02-11T11:32:31;11.75;;;5.20;;
72728;SDS011;60843;52.062;4.508;2023-02-11T11:35:04;11.30;;;5.75;;
72728;SDS011;60843;52.062;4.508;2023-02-11T11:37:41;12.45;;;5.07;;
72728;SDS011;60843;52.062;4.508;2023-02-11T11:42:38;12.32;;;4.80;;
72728;SDS011;60843;52.062;4.508;2023-02-11T11:50:22;10.80;;;4.97;;
72728;SDS011;60843;52.062;4.508;2023-02-11T11:55:21;11.65;;;5.38;;
72728;SDS011;60843;52.062;4.508;2023-02-11T11:57:49;9.95;;;4.88;;
72728;SDS011;60843;52.062;4.508;2023-02-11T12:08:31;10.98;;;5.40;;
72728;SDS011;60843;52.062;4.508;2023-02-11T12:13:59;38.10;;;14.85;;
72728;SDS011;60843;52.062;4.508;2023-02-11T12:16:35;54.08;;;19.15;;
72728;SDS011;60843;52.062;4.508;2023-02-11T12:19:25;22.42;;;8.52;;
72728;SDS011;60843;52.062;4.508;2023-02-11T12:22:12;14.25;;;4.32;;
72728;SDS011;60843;52.062;4.508;2023-02-11T12:30:15;12.55;;;4.80;;
72728;SDS011;60843;52.062;4.508;2023-02-11T12:55:20;20.77;;;8.40;;
72728;SDS011;60843;52.062;4.508;2023-02-11T13:00:14;10.03;;;4.83;;
72728;SDS011;60843;52.062;4.508;2023-02-11T13:02:52;10.00;;;4.00;;
72728;SDS011;60843;52.062;4.508;2023-02-11T13:05:45;8.23;;;4.28;;
72728;SDS011;60843;52.062;4.508;2023-02-11T13:08:32;7.90;;;3.92;;
72728;SDS011;60843;52.062;4.508;2023-02-11T13:11:03;8.80;;;4.78;;
72728;SDS011;60843;52.062;4.508;2023-02-11T13:21:32;8.38;;;4.32;;
72728;SDS011;60843;52.062;4.508;2023-02-11T13:24:04;5.75;;;2.92;;
72728;SDS011;60843;52.062;4.508;2023-02-11T13:26:56;6.95;;;3.42;;
72728;SDS011;60843;52.062;4.508;2023-02-11T13:29:28;8.73;;;3.53;;
72728;SDS011;60843;52.062;4.508;2023-02-11T13:32:11;6.72;;;3.08;;
72728;SDS011;60843;52.062;4.508;2023-02-11T13:40:05;7.18;;;3.45;;
72728;SDS011;60843;52.062;4.508;2023-02-11T13:42:31;9.55;;;3.92;;
72728;SDS011;60843;52.062;4.508;2023-02-11T13:44:58;9.77;;;4.22;;
72728;SDS011;60843;52.062;4.508;2023-02-11T13:47:25;10.15;;;3.85;;
72728;SDS011;60843;52.062;4.508;2023-02-11T13:49:54;6.30;;;3.58;;
72728;SDS011;60843;52.062;4.508;2023-02-11T13:52:22;9.82;;;3.90;;
72728;SDS011;60843;52.062;4.508;2023-02-11T13:54:50;7.35;;;3.35;;
72728;SDS011;60843;52.062;4.508;2023-02-11T14:02:30;4.80;;;2.47;;
72728;SDS011;60843;52.062;4.508;2023-02-11T14:05:23;8.38;;;2.97;;
72728;SDS011;60843;52.062;4.508;2023-02-11T14:16:14;7.70;;;3.05;;
72728;SDS011;60843;52.062;4.508;2023-02-11T14:21:53;6.18;;;2.17;;
72728;SDS011;60843;52.062;4.508;2023-02-11T14:29:17;6.50;;;3.00;;
72728;SDS011;60843;52.062;4.508;2023-02-11T14:41:47;3.15;;;1.95;;
72728;SDS011;60843;52.062;4.508;2023-02-11T14:46:50;9.02;;;2.80;;
72728;SDS011;60843;52.062;4.508;2023-02-11T14:49:27;6.72;;;3.10;;
72728;SDS011;60843;52.062;4.508;2023-02-11T14:51:55;7.93;;;2.72;;
72728;SDS011;60843;52.062;4.508;2023-02-11T14:54:24;7.00;;;2.33;;
72728;SDS011;60843;52.062;4.508;2023-02-11T14:59:59;5.80;;;2.55;;
72728;SDS011;60843;52.062;4.508;2023-02-11T15:02:32;6.40;;;3.03;;
72728;SDS011;60843;52.062;4.508;2023-02-11T15:05:12;5.82;;;2.65;;
72728;SDS011;60843;52.062;4.508;2023-02-11T15:07:53;6.93;;;3.25;;
72728;SDS011;60843;52.062;4.508;2023-02-11T15:10:42;10.60;;;2.90;;
72728;SDS011;60843;52.062;4.508;2023-02-11T15:13:06;8.35;;;3.20;;
72728;SDS011;60843;52.062;4.508;2023-02-11T15:15:32;8.75;;;2.88;;
72728;SDS011;60843;52.062;4.508;2023-02-11T15:18:00;7.35;;;3.08;;
72728;SDS011;60843;52.062;4.508;2023-02-11T15:20:27;9.27;;;2.83;;
72728;SDS011;60843;52.062;4.508;2023-02-11T15:23:00;6.72;;;2.97;;
72728;SDS011;60843;52.062;4.508;2023-02-11T15:25:27;8.70;;;3.00;;
72728;SDS011;60843;52.062;4.508;2023-02-11T15:27:53;5.82;;;2.55;;
72728;SDS011;60843;52.062;4.508;2023-02-11T15:32:46;6.17;;;2.83;;
72728;SDS011;60843;52.062;4.508;2023-02-11T15:35:12;8.20;;;3.20;;
72728;SDS011;60843;52.062;4.508;2023-02-11T15:37:38;7.68;;;2.63;;
72728;SDS011;60843;52.062;4.508;2023-02-11T15:40:08;7.35;;;2.90;;
72728;SDS011;60843;52.062;4.508;2023-02-11T15:42:59;6.05;;;2.97;;
72728;SDS011;60843;52.062;4.508;2023-02-11T15:45:32;10.50;;;3.17;;
72728;SDS011;60843;52.062;4.508;2023-02-11T15:48:08;7.97;;;2.80;;
72728;SDS011;60843;52.062;4.508;2023-02-11T15:50:37;7.25;;;2.88;;
72728;SDS011;60843;52.062;4.508;2023-02-11T15:56:12;8.38;;;2.97;;
72728;SDS011;60843;52.062;4.508;2023-02-11T15:58:59;5.90;;;2.60;;
72728;SDS011;60843;52.062;4.508;2023-02-11T16:01:33;6.53;;;3.15;;
72728;SDS011;60843;52.062;4.508;2023-02-11T16:04:00;7.50;;;3.10;;
72728;SDS011;60843;52.062;4.508;2023-02-11T16:14:22;5.20;;;2.47;;
72728;SDS011;60843;52.062;4.508;2023-02-11T16:16:57;7.43;;;3.03;;
72728;SDS011;60843;52.062;4.508;2023-02-11T16:19:25;11.70;;;3.40;;
72728;SDS011;60843;52.062;4.508;2023-02-11T16:21:52;7.38;;;3.08;;
72728;SDS011;60843;52.062;4.508;2023-02-11T16:24:26;7.57;;;3.15;;
72728;SDS011;60843;52.062;4.508;2023-02-11T16:26:54;8.15;;;3.42;;
72728;SDS011;60843;52.062;4.508;2023-02-11T16:29:26;9.57;;;3.80;;
72728;SDS011;60843;52.062;4.508;2023-02-11T16:31:53;6.00;;;2.90;;
72728;SDS011;60843;52.062;4.508;2023-02-11T16:34:29;7.45;;;3.22;;
72728;SDS011;60843;52.062;4.508;2023-02-11T16:36:55;5.72;;;3.00;;
72728;SDS011;60843;52.062;4.508;2023-02-11T16:39:20;6.90;;;3.05;;
72728;SDS011;60843;52.062;4.508;2023-02-11T16:41:46;9.85;;;3.40;;
72728;SDS011;60843;52.062;4.508;2023-02-11T16:44:12;9.63;;;3.70;;
72728;SDS011;60843;52.062;4.508;2023-02-11T16:46:37;7.38;;;2.97;;
72728;SDS011;60843;52.062;4.508;2023-02-11T16:49:06;8.30;;;3.28;;
72728;SDS011;60843;52.062;4.508;2023-02-11T16:51:37;6.05;;;3.28;;
72728;SDS011;60843;52.062;4.508;2023-02-11T16:54:03;8.25;;;3.58;;
72728;SDS011;60843;52.062;4.508;2023-02-11T16:56:29;7.68;;;3.42;;
72728;SDS011;60843;52.062;4.508;2023-02-11T16:58:54;9.23;;;4.00;;
72728;SDS011;60843;52.062;4.508;2023-02-11T17:01:19;10.37;;;4.07;;
72728;SDS011;60843;52.062;4.508;2023-02-11T17:03:45;8.17;;;4.03;;
72728;SDS011;60843;52.062;4.508;2023-02-11T17:06:10;6.82;;;3.90;;
72728;SDS011;60843;52.062;4.508;2023-02-11T17:08:37;6.93;;;3.38;;
72728;SDS011;60843;52.062;4.508;2023-02-11T17:11:03;9.13;;;3.60;;
72728;SDS011;60843;52.062;4.508;2023-02-11T17:13:29;6.50;;;3.10;;
72728;SDS011;60843;52.062;4.508;2023-02-11T17:15:55;9.52;;;4.00;;
72728;SDS011;60843;52.062;4.508;2023-02-11T17:18:20;8.60;;;3.63;;
72728;SDS011;60843;52.062;4.508;2023-02-11T17:20:45;8.63;;;3.92;;
72728;SDS011;60843;52.062;4.508;2023-02-11T17:23:12;9.95;;;4.38;;
72728;SDS011;60843;52.062;4.508;2023-02-11T17:25:37;7.85;;;4.32;;
72728;SDS011;60843;52.062;4.508;2023-02-11T17:28:03;5.82;;;3.20;;
72728;SDS011;60843;52.062;4.508;2023-02-11T17:30:29;12.02;;;3.80;;
72728;SDS011;60843;52.062;4.508;2023-02-11T17:32:55;6.75;;;3.35;;
72728;SDS011;60843;52.062;4.508;2023-02-11T17:35:20;9.40;;;3.53;;
72728;SDS011;60843;52.062;4.508;2023-02-11T17:37:46;10.70;;;3.65;;
72728;SDS011;60843;52.062;4.508;2023-02-11T17:40:11;8.32;;;3.35;;
72728;SDS011;60843;52.062;4.508;2023-02-11T17:42:37;9.02;;;3.70;;
72728;SDS011;60843;52.062;4.508;2023-02-11T17:45:03;7.30;;;3.80;;
72728;SDS011;60843;52.062;4.508;2023-02-11T17:47:28;8.10;;;3.42;;